sensor_id;sensor_type;location;lat;lon;timestamp;P1;durP1;ratioP1;P2;durP2;ratioP2
16015;SDS011;8112;53.592;10.184;2023-06-26T00:04:41;10.43;;;9.53;;
16015;SDS011;8112;53.592;10.184;2023-06-26T00:09:43;10.20;;;9.27;;
16015;SDS011;8112;53.592;10.184;2023-06-26T00:14:45;10.50;;;9.70;;
16015;SDS011;8112;53.592;10.184;2023-06-26T00:19:49;10.60;;;9.73;;
16015;SDS011;8112;53.592;10.184;2023-06-26T00:24:51;10.97;;;10.07;;
16015;SDS011;8112;53.592;10.184;2023-06-26T00:29:53;10.60;;;9.70;;
16015;SDS011;8112;53.592;10.184;2023-06-26T00:34:56;12.07;;;9.77;;
16015;SDS011;8112;53.592;10.184;2023-06-26T00:39:58;10.97;;;10.07;;
16015;SDS011;8112;53.592;10.184;2023-06-26T00:45:01;11.30;;;10.30;;
16015;SDS011;8112;53.592;10.184;2023-06-26T00:50:06;12.47;;;10.67;;
16015;SDS011;8112;53.592;10.184;2023-06-26T00:55:09;12.13;;;10.93;;
16015;SDS011;8112;53.592;10.184;2023-06-26T01:00:13;11.30;;;10.13;;
16015;SDS011;8112;53.592;10.184;2023-06-26T01:05:18;11.20;;;10.17;;
16015;SDS011;8112;53.592;10.184;2023-06-26T01:10:23;10.77;;;9.87;;
16015;SDS011;8112;53.592;10.184;2023-06-26T01:15:27;12.03;;;10.93;;
16015;SDS011;8112;53.592;10.184;2023-06-26T01:20:32;11.87;;;10.80;;
16015;SDS011;8112;53.592;10.184;2023-06-26T01:25:46;12.10;;;11.03;;
16015;SDS011;8112;53.592;10.184;2023-06-26T01:31:04;12.30;;;11.30;;
16015;SDS011;8112;53.592;10.184;2023-06-26T01:36:07;11.40;;;10.50;;
16015;SDS011;8112;53.592;10.184;2023-06-26T01:41:09;11.37;;;10.47;;
16015;SDS011;8112;53.592;10.184;2023-06-26T01:46:15;11.33;;;10.33;;
16015;SDS011;8112;53.592;10.184;2023-06-26T01:51:23;11.00;;;10.10;;
16015;SDS011;8112;53.592;10.184;2023-06-26T01:56:32;11.47;;;10.57;;
16015;SDS011;8112;53.592;10.184;2023-06-26T02:01:36;11.77;;;10.60;;
16015;SDS011;8112;53.592;10.184;2023-06-26T02:06:38;11.50;;;10.60;;
16015;SDS011;8112;53.592;10.184;2023-06-26T02:11:40;10.63;;;9.70;;
16015;SDS011;8112;53.592;10.184;2023-06-26T02:16:43;11.47;;;10.53;;
16015;SDS011;8112;53.592;10.184;2023-06-26T02:21:45;12.17;;;10.97;;
16015;SDS011;8112;53.592;10.184;2023-06-26T02:26:47;11.53;;;10.53;;
16015;SDS011;8112;53.592;10.184;2023-06-26T02:31:51;11.37;;;10.17;;
16015;SDS011;8112;53.592;10.184;2023-06-26T02:36:53;10.70;;;9.80;;
16015;SDS011;8112;53.592;10.184;2023-06-26T02:41:55;10.40;;;9.60;;
16015;SDS011;8112;53.592;10.184;2023-06-26T02:47:00;10.33;;;9.53;;
16015;SDS011;8112;53.592;10.184;2023-06-26T02:52:02;10.87;;;9.87;;
16015;SDS011;8112;53.592;10.184;2023-06-26T02:57:04;10.97;;;10.03;;
16015;SDS011;8112;53.592;10.184;2023-06-26T03:02:09;10.50;;;9.50;;
16015;SDS011;8112;53.592;10.184;2023-06-26T03:07:16;10.93;;;10.00;;
16015;SDS011;8112;53.592;10.184;2023-06-26T03:12:17;9.97;;;9.07;;
16015;SDS011;8112;53.592;10.184;2023-06-26T03:17:21;11.17;;;9.20;;
16015;SDS011;8112;53.592;10.184;2023-06-26T03:22:27;9.87;;;8.97;;
16015;SDS011;8112;53.592;10.184;2023-06-26T03:27:30;10.33;;;9.33;;
16015;SDS011;8112;53.592;10.184;2023-06-26T03:32:34;10.33;;;9.23;;
16015;SDS011;8112;53.592;10.184;2023-06-26T03:37:36;9.77;;;8.97;;
16015;SDS011;8112;53.592;10.184;2023-06-26T03:42:39;9.57;;;8.77;;
16015;SDS011;8112;53.592;10.184;2023-06-26T03:47:43;9.23;;;8.33;;
16015;SDS011;8112;53.592;10.184;2023-06-26T03:52:48;9.20;;;8.23;;
16015;SDS011;8112;53.592;10.184;2023-06-26T03:57:51;8.63;;;7.73;;
16015;SDS011;8112;53.592;10.184;2023-06-26T04:02:55;7.93;;;7.23;;
16015;SDS011;8112;53.592;10.184;2023-06-26T04:07:57;8.60;;;7.70;;
16015;SDS011;8112;53.592;10.184;2023-06-26T04:13:00;8.30;;;7.53;;
16015;SDS011;8112;53.592;10.184;2023-06-26T04:18:04;8.90;;;6.80;;
16015;SDS011;8112;53.592;10.184;2023-06-26T04:23:06;7.93;;;7.13;;
16015;SDS011;8112;53.592;10.184;2023-06-26T04:28:08;7.53;;;6.87;;
16015;SDS011;8112;53.592;10.184;2023-06-26T04:33:13;7.33;;;6.73;;
16015;SDS011;8112;53.592;10.184;2023-06-26T04:38:15;7.80;;;7.10;;
16015;SDS011;8112;53.592;10.184;2023-06-26T04:43:17;7.77;;;7.03;;
16015;SDS011;8112;53.592;10.184;2023-06-26T04:48:21;7.53;;;6.93;;
16015;SDS011;8112;53.592;10.184;2023-06-26T04:53:23;10.93;;;7.20;;
16015;SDS011;8112;53.592;10.184;2023-06-26T04:58:24;7.77;;;7.07;;
16015;SDS011;8112;53.592;10.184;2023-06-26T05:03:28;7.80;;;7.00;;
16015;SDS011;8112;53.592;10.184;2023-06-26T05:08:30;8.00;;;6.87;;
16015;SDS011;8112;53.592;10.184;2023-06-26T05:13:32;7.07;;;6.37;;
16015;SDS011;8112;53.592;10.184;2023-06-26T05:18:36;6.90;;;6.30;;
16015;SDS011;8112;53.592;10.184;2023-06-26T05:23:38;7.40;;;6.70;;
16015;SDS011;8112;53.592;10.184;2023-06-26T05:28:40;8.40;;;7.00;;
16015;SDS011;8112;53.592;10.184;2023-06-26T05:33:46;11.10;;;6.70;;
16015;SDS011;8112;53.592;10.184;2023-06-26T05:38:50;6.60;;;5.90;;
16015;SDS011;8112;53.592;10.184;2023-06-26T05:43:53;8.20;;;6.30;;
16015;SDS011;8112;53.592;10.184;2023-06-26T05:48:56;7.47;;;6.67;;
16015;SDS011;8112;53.592;10.184;2023-06-26T05:53:59;6.73;;;6.13;;
16015;SDS011;8112;53.592;10.184;2023-06-26T05:59:01;6.65;;;6.05;;
16015;SDS011;8112;53.592;10.184;2023-06-26T06:04:05;6.03;;;5.43;;
16015;SDS011;8112;53.592;10.184;2023-06-26T06:09:06;6.53;;;5.93;;
16015;SDS011;8112;53.592;10.184;2023-06-26T06:14:08;6.38;;;5.78;;
16015;SDS011;8112;53.592;10.184;2023-06-26T06:19:12;6.38;;;5.80;;
16015;SDS011;8112;53.592;10.184;2023-06-26T06:24:14;6.65;;;5.97;;
16015;SDS011;8112;53.592;10.184;2023-06-26T06:29:15;6.55;;;6.00;;
16015;SDS011;8112;53.592;10.184;2023-06-26T06:34:20;6.13;;;5.60;;
16015;SDS011;8112;53.592;10.184;2023-06-26T06:39:23;6.78;;;6.18;;
16015;SDS011;8112;53.592;10.184;2023-06-26T06:44:25;6.03;;;5.40;;
16015;SDS011;8112;53.592;10.184;2023-06-26T06:49:28;6.55;;;5.78;;
16015;SDS011;8112;53.592;10.184;2023-06-26T06:54:30;8.07;;;5.70;;
16015;SDS011;8112;53.592;10.184;2023-06-26T06:59:32;12.25;;;6.80;;
16015;SDS011;8112;53.592;10.184;2023-06-26T07:04:35;6.90;;;5.70;;
16015;SDS011;8112;53.592;10.184;2023-06-26T07:09:38;5.97;;;5.38;;
16015;SDS011;8112;53.592;10.184;2023-06-26T07:14:39;6.88;;;5.72;;
16015;SDS011;8112;53.592;10.184;2023-06-26T07:19:43;7.35;;;5.95;;
16015;SDS011;8112;53.592;10.184;2023-06-26T07:24:45;13.68;;;5.88;;
16015;SDS011;8112;53.592;10.184;2023-06-26T07:29:47;9.45;;;6.22;;
16015;SDS011;8112;53.592;10.184;2023-06-26T07:34:51;7.07;;;5.93;;
16015;SDS011;8112;53.592;10.184;2023-06-26T07:39:53;7.05;;;5.45;;
16015;SDS011;8112;53.592;10.184;2023-06-26T07:44:54;6.43;;;5.82;;
16015;SDS011;8112;53.592;10.184;2023-06-26T07:49:58;5.55;;;5.13;;
16015;SDS011;8112;53.592;10.184;2023-06-26T07:55:03;7.43;;;6.72;;
16015;SDS011;8112;53.592;10.184;2023-06-26T08:00:06;5.85;;;5.15;;
16015;SDS011;8112;53.592;10.184;2023-06-26T08:05:17;7.82;;;6.07;;
16015;SDS011;8112;53.592;10.184;2023-06-26T08:10:19;5.78;;;5.28;;
16015;SDS011;8112;53.592;10.184;2023-06-26T08:15:21;7.22;;;6.40;;
16015;SDS011;8112;53.592;10.184;2023-06-26T08:20:24;8.75;;;5.78;;
16015;SDS011;8112;53.592;10.184;2023-06-26T08:25:26;6.68;;;6.00;;
16015;SDS011;8112;53.592;10.184;2023-06-26T08:30:29;6.28;;;5.78;;
16015;SDS011;8112;53.592;10.184;2023-06-26T08:35:32;8.23;;;6.10;;
16015;SDS011;8112;53.592;10.184;2023-06-26T08:40:34;6.47;;;5.88;;
16015;SDS011;8112;53.592;10.184;2023-06-26T08:45:38;6.60;;;6.00;;
16015;SDS011;8112;53.592;10.184;2023-06-26T08:50:42;11.50;;;6.40;;
16015;SDS011;8112;53.592;10.184;2023-06-26T08:55:45;6.22;;;5.72;;
16015;SDS011;8112;53.592;10.184;2023-06-26T09:00:51;6.55;;;5.95;;
16015;SDS011;8112;53.592;10.184;2023-06-26T09:05:57;6.75;;;6.15;;
16015;SDS011;8112;53.592;10.184;2023-06-26T09:10:59;6.35;;;5.65;;
16015;SDS011;8112;53.592;10.184;2023-06-26T09:16:04;7.20;;;6.47;;
16015;SDS011;8112;53.592;10.184;2023-06-26T09:21:09;11.63;;;6.97;;
16015;SDS011;8112;53.592;10.184;2023-06-26T09:26:13;7.25;;;6.55;;
16015;SDS011;8112;53.592;10.184;2023-06-26T09:31:16;8.35;;;6.88;;
16015;SDS011;8112;53.592;10.184;2023-06-26T09:36:22;9.50;;;7.22;;
16015;SDS011;8112;53.592;10.184;2023-06-26T09:41:25;8.90;;;8.10;;
16015;SDS011;8112;53.592;10.184;2023-06-26T09:46:27;11.85;;;8.63;;
16015;SDS011;8112;53.592;10.184;2023-06-26T09:51:31;10.13;;;9.13;;
16015;SDS011;8112;53.592;10.184;2023-06-26T09:56:34;12.50;;;9.30;;
16015;SDS011;8112;53.592;10.184;2023-06-26T10:01:39;11.48;;;8.65;;
16015;SDS011;8112;53.592;10.184;2023-06-26T10:06:45;12.13;;;10.15;;
16015;SDS011;8112;53.592;10.184;2023-06-26T10:11:51;14.00;;;9.52;;
16015;SDS011;8112;53.592;10.184;2023-06-26T10:16:57;10.57;;;9.47;;
16015;SDS011;8112;53.592;10.184;2023-06-26T10:22:05;10.73;;;9.73;;
16015;SDS011;8112;53.592;10.184;2023-06-26T10:27:08;10.50;;;9.57;;
16015;SDS011;8112;53.592;10.184;2023-06-26T10:32:19;14.13;;;11.67;;
16015;SDS011;8112;53.592;10.184;2023-06-26T10:42:45;15.27;;;13.67;;
16015;SDS011;8112;53.592;10.184;2023-06-26T10:47:47;18.63;;;13.93;;
16015;SDS011;8112;53.592;10.184;2023-06-26T10:53:10;10.63;;;9.53;;
16015;SDS011;8112;53.592;10.184;2023-06-26T10:58:32;9.40;;;8.50;;
16015;SDS011;8112;53.592;10.184;2023-06-26T11:03:36;9.03;;;8.23;;
16015;SDS011;8112;53.592;10.184;2023-06-26T11:08:46;8.80;;;8.00;;
16015;SDS011;8112;53.592;10.184;2023-06-26T11:13:49;7.60;;;6.90;;
16015;SDS011;8112;53.592;10.184;2023-06-26T11:18:52;8.00;;;7.20;;
16015;SDS011;8112;53.592;10.184;2023-06-26T11:24:02;9.03;;;7.73;;
16015;SDS011;8112;53.592;10.184;2023-06-26T11:29:05;10.57;;;8.17;;
16015;SDS011;8112;53.592;10.184;2023-06-26T11:34:08;9.00;;;7.00;;
16015;SDS011;8112;53.592;10.184;2023-06-26T11:39:13;7.37;;;6.67;;
16015;SDS011;8112;53.592;10.184;2023-06-26T11:44:15;7.27;;;5.73;;
16015;SDS011;8112;53.592;10.184;2023-06-26T11:49:20;10.27;;;6.30;;
16015;SDS011;8112;53.592;10.184;2023-06-26T11:54:27;9.50;;;6.07;;
16015;SDS011;8112;53.592;10.184;2023-06-26T11:59:35;9.50;;;5.93;;
16015;SDS011;8112;53.592;10.184;2023-06-26T12:04:40;7.57;;;4.53;;
16015;SDS011;8112;53.592;10.184;2023-06-26T12:09:46;10.17;;;4.63;;
16015;SDS011;8112;53.592;10.184;2023-06-26T12:14:49;7.23;;;3.47;;
16015;SDS011;8112;53.592;10.184;2023-06-26T12:19:52;5.50;;;2.60;;
16015;SDS011;8112;53.592;10.184;2023-06-26T12:24:56;7.10;;;2.10;;
16015;SDS011;8112;53.592;10.184;2023-06-26T12:29:58;6.80;;;2.53;;
16015;SDS011;8112;53.592;10.184;2023-06-26T12:35:00;5.60;;;2.40;;
16015;SDS011;8112;53.592;10.184;2023-06-26T12:40:05;7.80;;;2.93;;
16015;SDS011;8112;53.592;10.184;2023-06-26T12:45:18;7.67;;;2.97;;
16015;SDS011;8112;53.592;10.184;2023-06-26T12:50:20;7.07;;;3.00;;
16015;SDS011;8112;53.592;10.184;2023-06-26T12:55:24;5.23;;;2.47;;
16015;SDS011;8112;53.592;10.184;2023-06-26T13:00:26;8.10;;;2.67;;
16015;SDS011;8112;53.592;10.184;2023-06-26T13:05:28;5.20;;;2.50;;
16015;SDS011;8112;53.592;10.184;2023-06-26T13:10:32;7.80;;;2.57;;
16015;SDS011;8112;53.592;10.184;2023-06-26T13:15:36;6.33;;;2.17;;
16015;SDS011;8112;53.592;10.184;2023-06-26T13:20:37;5.47;;;1.93;;
16015;SDS011;8112;53.592;10.184;2023-06-26T13:25:41;7.87;;;2.40;;
16015;SDS011;8112;53.592;10.184;2023-06-26T13:30:43;3.53;;;1.50;;
16015;SDS011;8112;53.592;10.184;2023-06-26T13:35:46;4.83;;;1.83;;
16015;SDS011;8112;53.592;10.184;2023-06-26T13:40:49;7.07;;;2.10;;
16015;SDS011;8112;53.592;10.184;2023-06-26T13:45:52;6.90;;;1.80;;
16015;SDS011;8112;53.592;10.184;2023-06-26T13:50:54;9.53;;;2.57;;
16015;SDS011;8112;53.592;10.184;2023-06-26T13:55:58;9.60;;;2.43;;
16015;SDS011;8112;53.592;10.184;2023-06-26T14:01:00;5.53;;;1.70;;
16015;SDS011;8112;53.592;10.184;2023-06-26T14:06:02;4.70;;;2.00;;
16015;SDS011;8112;53.592;10.184;2023-06-26T14:11:06;2.93;;;1.67;;
16015;SDS011;8112;53.592;10.184;2023-06-26T14:16:08;4.30;;;1.83;;
16015;SDS011;8112;53.592;10.184;2023-06-26T14:21:10;5.80;;;1.93;;
16015;SDS011;8112;53.592;10.184;2023-06-26T14:26:13;6.77;;;1.73;;
16015;SDS011;8112;53.592;10.184;2023-06-26T14:31:15;3.93;;;1.73;;
16015;SDS011;8112;53.592;10.184;2023-06-26T14:36:18;5.40;;;1.60;;
16015;SDS011;8112;53.592;10.184;2023-06-26T14:41:23;5.00;;;1.90;;
16015;SDS011;8112;53.592;10.184;2023-06-26T14:46:25;4.20;;;1.63;;
16015;SDS011;8112;53.592;10.184;2023-06-26T14:51:27;4.10;;;1.77;;
16015;SDS011;8112;53.592;10.184;2023-06-26T14:56:31;2.57;;;1.23;;
16015;SDS011;8112;53.592;10.184;2023-06-26T15:01:32;3.70;;;1.30;;
16015;SDS011;8112;53.592;10.184;2023-06-26T15:06:34;3.77;;;1.23;;
16015;SDS011;8112;53.592;10.184;2023-06-26T15:11:38;4.07;;;1.57;;
16015;SDS011;8112;53.592;10.184;2023-06-26T15:16:41;2.77;;;1.00;;
16015;SDS011;8112;53.592;10.184;2023-06-26T15:21:43;2.23;;;1.40;;
16015;SDS011;8112;53.592;10.184;2023-06-26T15:26:46;4.07;;;1.00;;
16015;SDS011;8112;53.592;10.184;2023-06-26T15:31:48;3.50;;;1.90;;
16015;SDS011;8112;53.592;10.184;2023-06-26T15:36:50;2.60;;;1.70;;
16015;SDS011;8112;53.592;10.184;2023-06-26T15:41:54;5.37;;;1.80;;
16015;SDS011;8112;53.592;10.184;2023-06-26T15:46:56;3.50;;;1.60;;
16015;SDS011;8112;53.592;10.184;2023-06-26T15:51:58;2.80;;;1.10;;
16015;SDS011;8112;53.592;10.184;2023-06-26T15:57:02;2.80;;;1.47;;
16015;SDS011;8112;53.592;10.184;2023-06-26T16:02:04;1.60;;;1.23;;
16015;SDS011;8112;53.592;10.184;2023-06-26T16:07:08;3.27;;;1.37;;
16015;SDS011;8112;53.592;10.184;2023-06-26T16:12:21;2.57;;;1.20;;
16015;SDS011;8112;53.592;10.184;2023-06-26T16:17:24;5.13;;;1.37;;
16015;SDS011;8112;53.592;10.184;2023-06-26T16:22:26;3.67;;;1.87;;
16015;SDS011;8112;53.592;10.184;2023-06-26T16:27:30;4.23;;;1.97;;
16015;SDS011;8112;53.592;10.184;2023-06-26T16:32:32;4.50;;;1.60;;
16015;SDS011;8112;53.592;10.184;2023-06-26T16:37:34;4.07;;;1.83;;
16015;SDS011;8112;53.592;10.184;2023-06-26T16:42:38;6.43;;;1.83;;
16015;SDS011;8112;53.592;10.184;2023-06-26T16:47:40;6.10;;;1.90;;
16015;SDS011;8112;53.592;10.184;2023-06-26T16:52:42;3.57;;;1.60;;
16015;SDS011;8112;53.592;10.184;2023-06-26T16:57:46;5.50;;;1.70;;
16015;SDS011;8112;53.592;10.184;2023-06-26T17:02:48;2.23;;;1.50;;
16015;SDS011;8112;53.592;10.184;2023-06-26T17:07:50;3.23;;;1.60;;
16015;SDS011;8112;53.592;10.184;2023-06-26T17:12:54;9.27;;;2.17;;
16015;SDS011;8112;53.592;10.184;2023-06-26T17:17:56;3.97;;;1.73;;
16015;SDS011;8112;53.592;10.184;2023-06-26T17:23:00;3.60;;;1.87;;
16015;SDS011;8112;53.592;10.184;2023-06-26T17:28:04;5.23;;;1.90;;
16015;SDS011;8112;53.592;10.184;2023-06-26T17:33:06;6.73;;;1.97;;
16015;SDS011;8112;53.592;10.184;2023-06-26T17:38:08;6.07;;;2.13;;
16015;SDS011;8112;53.592;10.184;2023-06-26T17:43:12;4.37;;;2.30;;
16015;SDS011;8112;53.592;10.184;2023-06-26T17:48:14;7.27;;;2.20;;
16015;SDS011;8112;53.592;10.184;2023-06-26T17:53:18;5.57;;;1.97;;
16015;SDS011;8112;53.592;10.184;2023-06-26T17:58:22;7.37;;;2.67;;
16015;SDS011;8112;53.592;10.184;2023-06-26T18:03:25;7.53;;;2.53;;
16015;SDS011;8112;53.592;10.184;2023-06-26T18:08:27;6.03;;;2.70;;
16015;SDS011;8112;53.592;10.184;2023-06-26T18:13:31;7.50;;;1.90;;
16015;SDS011;8112;53.592;10.184;2023-06-26T18:18:33;8.50;;;2.70;;
16015;SDS011;8112;53.592;10.184;2023-06-26T18:23:35;5.10;;;1.77;;
16015;SDS011;8112;53.592;10.184;2023-06-26T18:28:39;9.47;;;2.07;;
16015;SDS011;8112;53.592;10.184;2023-06-26T18:33:41;4.13;;;1.80;;
16015;SDS011;8112;53.592;10.184;2023-06-26T18:38:44;3.40;;;2.00;;
16015;SDS011;8112;53.592;10.184;2023-06-26T18:43:48;5.57;;;1.80;;
16015;SDS011;8112;53.592;10.184;2023-06-26T18:48:58;5.10;;;2.03;;
16015;SDS011;8112;53.592;10.184;2023-06-26T18:54:01;4.33;;;1.87;;
16015;SDS011;8112;53.592;10.184;2023-06-26T18:59:05;15.73;;;2.37;;
16015;SDS011;8112;53.592;10.184;2023-06-26T19:04:07;6.73;;;2.43;;
16015;SDS011;8112;53.592;10.184;2023-06-26T19:09:09;6.70;;;1.90;;
16015;SDS011;8112;53.592;10.184;2023-06-26T19:14:13;10.60;;;2.70;;
16015;SDS011;8112;53.592;10.184;2023-06-26T19:19:15;7.77;;;1.80;;
16015;SDS011;8112;53.592;10.184;2023-06-26T19:24:17;8.80;;;2.20;;
16015;SDS011;8112;53.592;10.184;2023-06-26T19:29:21;6.20;;;2.00;;
16015;SDS011;8112;53.592;10.184;2023-06-26T19:34:24;5.60;;;2.27;;
16015;SDS011;8112;53.592;10.184;2023-06-26T19:39:26;7.30;;;2.97;;
16015;SDS011;8112;53.592;10.184;2023-06-26T19:44:29;6.73;;;2.30;;
16015;SDS011;8112;53.592;10.184;2023-06-26T19:49:31;7.77;;;2.37;;
16015;SDS011;8112;53.592;10.184;2023-06-26T19:54:33;6.90;;;2.27;;
16015;SDS011;8112;53.592;10.184;2023-06-26T19:59:37;9.40;;;2.63;;
16015;SDS011;8112;53.592;10.184;2023-06-26T20:04:39;9.03;;;2.87;;
16015;SDS011;8112;53.592;10.184;2023-06-26T20:09:42;8.40;;;2.80;;
16015;SDS011;8112;53.592;10.184;2023-06-26T20:14:50;8.87;;;2.50;;
16015;SDS011;8112;53.592;10.184;2023-06-26T20:19:52;5.60;;;2.80;;
16015;SDS011;8112;53.592;10.184;2023-06-26T20:24:54;6.27;;;3.10;;
16015;SDS011;8112;53.592;10.184;2023-06-26T20:29:58;8.97;;;3.27;;
16015;SDS011;8112;53.592;10.184;2023-06-26T20:35:01;7.30;;;2.70;;
16015;SDS011;8112;53.592;10.184;2023-06-26T20:40:04;7.13;;;2.93;;
16015;SDS011;8112;53.592;10.184;2023-06-26T20:45:09;4.67;;;2.70;;
16015;SDS011;8112;53.592;10.184;2023-06-26T20:50:13;11.37;;;3.97;;
16015;SDS011;8112;53.592;10.184;2023-06-26T20:55:16;8.50;;;3.23;;
16015;SDS011;8112;53.592;10.184;2023-06-26T21:00:20;6.67;;;2.70;;
16015;SDS011;8112;53.592;10.184;2023-06-26T21:05:23;7.67;;;2.70;;
16015;SDS011;8112;53.592;10.184;2023-06-26T21:10:26;7.40;;;3.37;;
16015;SDS011;8112;53.592;10.184;2023-06-26T21:15:33;8.33;;;3.00;;
16015;SDS011;8112;53.592;10.184;2023-06-26T21:20:35;7.97;;;3.00;;
16015;SDS011;8112;53.592;10.184;2023-06-26T21:25:37;6.10;;;2.80;;
16015;SDS011;8112;53.592;10.184;2023-06-26T21:30:41;13.40;;;3.43;;
16015;SDS011;8112;53.592;10.184;2023-06-26T21:35:43;13.63;;;4.83;;
16015;SDS011;8112;53.592;10.184;2023-06-26T21:40:46;14.07;;;3.80;;
16015;SDS011;8112;53.592;10.184;2023-06-26T21:45:50;10.03;;;3.33;;
16015;SDS011;8112;53.592;10.184;2023-06-26T21:50:52;12.27;;;3.30;;
16015;SDS011;8112;53.592;10.184;2023-06-26T21:55:54;12.67;;;3.13;;
16015;SDS011;8112;53.592;10.184;2023-06-26T22:00:57;7.80;;;3.30;;
16015;SDS011;8112;53.592;10.184;2023-06-26T22:06:05;6.87;;;3.27;;
16015;SDS011;8112;53.592;10.184;2023-06-26T22:11:07;12.50;;;3.33;;
16015;SDS011;8112;53.592;10.184;2023-06-26T22:16:11;8.80;;;3.23;;
16015;SDS011;8112;53.592;10.184;2023-06-26T22:21:13;12.13;;;3.47;;
16015;SDS011;8112;53.592;10.184;2023-06-26T22:26:20;15.00;;;3.80;;
16015;SDS011;8112;53.592;10.184;2023-06-26T22:31:24;11.40;;;3.47;;
16015;SDS011;8112;53.592;10.184;2023-06-26T22:36:26;11.40;;;3.37;;
16015;SDS011;8112;53.592;10.184;2023-06-26T22:41:28;8.47;;;3.23;;
16015;SDS011;8112;53.592;10.184;2023-06-26T22:46:32;7.47;;;3.40;;
16015;SDS011;8112;53.592;10.184;2023-06-26T22:51:33;9.53;;;3.27;;
16015;SDS011;8112;53.592;10.184;2023-06-26T22:56:35;9.57;;;3.20;;
16015;SDS011;8112;53.592;10.184;2023-06-26T23:01:41;13.83;;;3.50;;
16015;SDS011;8112;53.592;10.184;2023-06-26T23:06:43;13.53;;;3.10;;
16015;SDS011;8112;53.592;10.184;2023-06-26T23:11:47;5.93;;;2.90;;
16015;SDS011;8112;53.592;10.184;2023-06-26T23:16:51;11.80;;;3.40;;
16015;SDS011;8112;53.592;10.184;2023-06-26T23:22:04;15.97;;;3.63;;
16015;SDS011;8112;53.592;10.184;2023-06-26T23:27:09;10.03;;;2.77;;
16015;SDS011;8112;53.592;10.184;2023-06-26T23:32:12;10.63;;;3.17;;
16015;SDS011;8112;53.592;10.184;2023-06-26T23:37:14;14.07;;;3.20;;
16015;SDS011;8112;53.592;10.184;2023-06-26T23:42:25;8.13;;;3.17;;
16015;SDS011;8112;53.592;10.184;2023-06-26T23:47:28;13.57;;;3.57;;
16015;SDS011;8112;53.592;10.184;2023-06-26T23:52:30;11.37;;;3.03;;
16015;SDS011;8112;53.592;10.184;2023-06-26T23:57:34;12.13;;;2.67;;
